Praha, Texas
Current Conditions -  °F | °C
As of 11:10 AM on Thursday 27 Nov 2014 (Local Time) from K3T5 Reporting Station
Clear Clear  
Wind Chill: 15°   Ceiling: Unl
Heat Index: 15°   Visibility: 10mi
Dew Point:   Wind: 6mph
Humidity: 36%   Direction: 60°ENE
Pressure: 30.5"   Gusts: NA
Location:  29.7626°N, 97.1228°W
Report Text: K3T5 271710Z AUTO 06005KT 10SM CLR 15/01 A3050 RMK AO2 T01540005
Loading
Personal Weather Stations






























Interactive Weather Map New forecast layout! Learn more

10-Day Weather Forecast

Advertisements
Track Severe Weather on mobile